Neponset, Illinois
Current Conditions -  °F | °C
As of 8:35 AM on Friday 24 Oct 2014 (Local Time) from KC75 Reporting Station
Moderate Fog Moderate Fog  
Wind Chill: 47°   Ceiling: 100
Heat Index: 47°   Visibility: 0mi
Dew Point: 46°   Wind: 0mph
Humidity: 96%   Direction: NA
Pressure: 30.08"   Gusts: NA
Location:  41.3°N, 89.79°W
Report Text: KC75 241335Z AUTO 00000KT M1/4SM FG OVC001 09/08 A3008 RMK AO2 T00850079
Loading
Personal Weather Stations






























Interactive Weather Map
Tropical Storm Tracking
New forecast layout! Learn more

10-Day Weather Forecast

Advertisements
Track Severe Weather on mobile